Turbeville, SC (29162)

1:02 PM EST on February 10, 2016 (GMT -0500)
Williamsburg County | | Change Station
CLOSE
Current Station
Airport
Location: Kingstree,
Elevation: 66 ft
Nearby Weather Stations
Active Advisory: Lake Wind Advisory Active Notice: Public Information Statement

Elev 66 ft 33.72 °N, 79.86 °W | Updated 7 minutes ago

Partly Cloudy
Partly Cloudy
37 °F
Feels Like 29 °F
N
14
Wind Variable Wind from SW
Gusts 24 mph

Today
High -- | Low -- °F
--% Chance of Precip.
Yesterday
High -- | Low -- °F
Precip. -- in
Pressure 29.99 in
Visibility 10.0 miles
Clouds Mostly Cloudy 4900 ft
Windchill 29 °F
Dew Point 16 °F
Humidity 41%
Rainfall 0.00 in
Snow Depth Not available.
7:09 AM 5:59 PM
Waxing Crescent, 6% visible
METAR KCKI 101755Z AUTO 22012G21KT 10SM BKN049 03/M09 A2999 RMK AO2
Pressure 29.99 in
Visibility 10.0 miles
Clouds Mostly Cloudy 4900 ft
Windchill 29 °F
Dew Point 16 °F
Humidity 41%
Rainfall 0.00 in
Snow Depth Not available.
7:09 AM 5:59 PM
Waxing Crescent, 6% visible
METAR KCKI 101755Z AUTO 22012G21KT 10SM BKN049 03/M09 A2999 RMK AO2

10-Day Weather Forecast

Almanac

Astronomy

Feb. 10, 2016 Rise Set
Actual Time
Civil Twilight
Nautical Twilight
Astronomical Twilight
Moon
Length of Visible Light
Length of Day
Tomorrow will be .
, % of the Moon is Illuminated

Today's Extremes

State Highs State Lows

Community

WunderPhotos

Upload Photos

1,891,904 photos uploaded!

WunderBlog® & News

Nearby

Air Quality

  Air Quality AQ Index Pollutant
Not available.

Snow Depth

Station Depth Elevation

Earthquake Activity

City Distance Mag. Time & Date
Minimum magnitude displayed is 2.5.

Coastal Water Temperatures

Place Temperature

Stations

Nearby Weather Stations

Station Location Temp. Windchill Dew Point Humidity Wind Precip. Elev Updated Type
                   

Watches & Warnings

Lake Wind Advisory
Issued: 3:47 AM EST Feb. 10, 2016 – National Weather Service

... Lake Wind Advisory remains in effect until 11 PM EST this
evening...

* timing... through this evening.

* Winds... west 20 to 30 knots.

* Impacts... strong winds and rough chop will create hazardous
conditions for small craft and personal watercraft.

Precautionary/preparedness actions...

A lake Wind Advisory indicates that winds will cause rough chop
on area lakes. Small boats will be especially prone to capsizing.